Time;durP1;ratioP1;P1;durP2;ratioP2;P2;SDS_P1;SDS_P2;PMS_P1;PMS_P2;Temp;Humidity;BMP_temperature;BMP_pressure;BME280_temperature;BME280_humidity;BME280_pressure;Samples;Min_cycle;Max_cycle;Signal;HPM_P1;HPM_P2
2023/09/01 00:00:09;;;;;;;7.05;5.38;;;435.70;2355.20;;;;;;5075078;28;20490;-78
2023/09/01 00:02:35;;;;;;;7.45;5.70;;;435.70;2355.20;;;;;;5075029;28;20023;-78
2023/09/01 00:05:02;;;;;;;7.25;5.93;;;435.70;2355.20;;;;;;5074605;28;20054;-78
2023/09/01 00:07:28;;;;;;;8.10;5.95;;;435.70;2355.20;;;;;;5056826;28;20020;-77
2023/09/01 00:09:54;;;;;;;7.90;6.10;;;435.80;2355.20;;;;;;5074666;28;20035;-77
2023/09/01 00:12:19;;;;;;;7.40;5.70;;;435.80;2355.20;;;;;;5057161;28;20024;-77
2023/09/01 00:14:45;;;;;;;9.35;5.80;;;435.70;2355.20;;;;;;5074810;28;20071;-78
2023/09/01 00:17:12;;;;;;;6.82;5.60;;;435.70;2355.20;;;;;;5075004;28;20024;-77
2023/09/01 00:19:39;;;;;;;7.47;5.65;;;435.70;2355.20;;;;;;5074783;28;20032;-78
2023/09/01 00:22:05;;;;;;;7.75;5.93;;;435.60;2355.20;;;;;;5055692;28;20028;-78
2023/09/01 00:24:32;;;;;;;7.50;6.00;;;435.60;2355.20;;;;;;5056938;28;20028;-77
2023/09/01 00:26:58;;;;;;;6.63;5.75;;;435.60;2355.20;;;;;;5075179;28;20025;-82
2023/09/01 00:29:24;;;;;;;8.32;6.05;;;435.50;2355.20;;;;;;5075024;28;20086;-78
2023/09/01 00:31:50;;;;;;;8.35;5.55;;;435.50;2355.20;;;;;;5074865;28;20020;-78
2023/09/01 00:34:16;;;;;;;7.90;5.78;;;435.50;2355.20;;;;;;5056628;28;20040;-77
2023/09/01 00:36:42;;;;;;;7.60;5.90;;;435.40;2355.20;;;;;;5056399;28;20041;-78
2023/09/01 00:39:08;;;;;;;8.38;5.95;;;435.40;2355.20;;;;;;5074889;28;20047;-78
2023/09/01 00:41:34;;;;;;;7.35;5.70;;;435.40;2355.20;;;;;;5074057;28;20021;-77
2023/09/01 00:44:00;;;;;;;7.65;5.72;;;435.30;2355.20;;;;;;5073288;28;20482;-78
2023/09/01 00:46:26;;;;;;;7.63;6.00;;;435.30;2355.20;;;;;;5074246;28;20032;-78
2023/09/01 00:48:54;;;;;;;8.05;6.30;;;435.30;2355.20;;;;;;5056470;28;20103;-79
2023/09/01 00:51:20;;;;;;;8.55;6.18;;;435.30;2355.20;;;;;;5074068;28;20032;-78
2023/09/01 00:53:46;;;;;;;10.55;6.20;;;435.50;2355.20;;;;;;5074176;28;20038;-78
2023/09/01 00:56:12;;;;;;;8.35;5.85;;;;;;;;;;5074535;28;20372;-78
2023/09/01 00:58:38;;;;;;;6.97;5.95;;;435.70;2355.20;;;;;;5074297;28;20063;-78
2023/09/01 01:01:04;;;;;;;8.63;6.30;;;435.40;2355.20;;;;;;5056259;28;20388;-78
2023/09/01 01:03:57;;;;;;;9.18;5.85;;;435.40;2355.20;;;;;;5074259;28;20048;-78
2023/09/01 01:06:32;;;;;;;7.35;5.82;;;435.40;2355.20;;;;;;5056085;28;20035;-78
2023/09/01 01:09:21;;;;;;;7.57;6.05;;;435.40;2355.20;;;;;;5056370;28;20378;-78
2023/09/01 01:12:09;;;;;;;8.38;6.28;;;435.40;2355.20;;;;;;5074037;28;20450;-78
2023/09/01 01:14:50;;;;;;;8.48;6.20;;;435.40;2355.20;;;;;;5073679;28;20419;-77
2023/09/01 01:17:21;;;;;;;7.35;5.75;;;435.30;2355.20;;;;;;5055850;28;20032;-77
2023/09/01 01:19:50;;;;;;;7.53;5.90;;;435.20;2355.20;;;;;;5073584;28;20028;-78
2023/09/01 01:22:23;;;;;;;8.63;6.32;;;435.20;2355.20;;;;;;5056333;28;20043;-78
2023/09/01 01:24:49;;;;;;;8.13;6.10;;;410.50;2355.20;;;;;;5073629;28;20021;-78
2023/09/01 01:27:18;;;;;;;8.27;6.63;;;410.50;2355.20;;;;;;5055733;28;20032;-77
2023/09/01 01:29:43;;;;;;;7.75;6.20;;;410.50;2355.20;;;;;;5073471;28;20035;-78
2023/09/01 01:32:09;;;;;;;8.93;6.30;;;410.50;2355.20;;;;;;5073407;28;20028;-78
2023/09/01 01:34:37;;;;;;;6.95;6.07;;;410.50;2355.20;;;;;;5072932;28;20081;-77
2023/09/01 01:37:21;;;;;;;7.70;6.38;;;410.50;2355.20;;;;;;5055258;28;20056;-80
2023/09/01 01:39:51;;;;;;;9.52;6.30;;;410.40;2355.20;;;;;;5072722;28;20056;-78
2023/09/01 01:42:18;;;;;;;7.82;5.60;;;410.40;2355.20;;;;;;5055139;28;20031;-78
2023/09/01 01:44:49;;;;;;;6.95;5.85;;;435.20;2355.20;;;;;;5073662;28;20036;-78
2023/09/01 01:47:15;;;;;;;8.70;6.20;;;410.40;2355.20;;;;;;5073355;28;20051;-79
2023/09/01 01:49:41;;;;;;;7.18;5.70;;;410.30;2355.20;;;;;;5072066;28;20029;-78
2023/09/01 01:52:07;;;;;;;7.00;5.85;;;410.40;2355.20;;;;;;5073376;28;20363;-78
2023/09/01 01:54:33;;;;;;;7.53;5.88;;;410.40;2355.20;;;;;;5072717;28;20040;-79
2023/09/01 01:56:59;;;;;;;6.97;6.10;;;410.30;2355.20;;;;;;5073224;28;20079;-79
2023/09/01 01:59:25;;;;;;;8.48;6.13;;;410.30;2355.20;;;;;;5055177;28;20024;-79
2023/09/01 02:01:51;;;;;;;8.32;6.22;;;410.30;2355.20;;;;;;5055153;28;20032;-77
2023/09/01 02:04:17;;;;;;;7.57;6.05;;;410.30;2355.20;;;;;;5054580;28;20115;-78
2023/09/01 02:06:43;;;;;;;7.25;6.00;;;410.40;2355.20;;;;;;5072981;28;20063;-77
2023/09/01 02:09:09;;;;;;;9.32;6.03;;;410.40;2355.20;;;;;;5073063;28;20020;-78
2023/09/01 02:11:39;;;;;;;7.75;5.80;;;410.30;2355.20;;;;;;5054711;28;20085;-78
2023/09/01 02:14:05;;;;;;;9.90;6.35;;;410.40;2355.20;;;;;;5054649;28;20516;-78
2023/09/01 02:16:32;;;;;;;7.40;6.18;;;410.40;2355.20;;;;;;5073303;28;20033;-77
2023/09/01 02:18:58;;;;;;;9.23;6.07;;;410.40;2355.20;;;;;;5072918;28;20033;-78
2023/09/01 02:21:24;;;;;;;7.18;5.75;;;410.40;2355.20;;;;;;5072671;28;20033;-78
2023/09/01 02:23:50;;;;;;;7.05;6.03;;;410.40;2355.20;;;;;;5054634;28;20021;-77
2023/09/01 02:26:23;;;;;;;8.35;5.88;;;410.40;2355.20;;;;;;5072577;28;20024;-78
2023/09/01 02:28:49;;;;;;;8.20;6.13;;;410.40;2355.20;;;;;;5072268;28;20347;-78
2023/09/01 02:31:15;;;;;;;7.00;5.95;;;410.40;2355.20;;;;;;5072213;28;20028;-77
2023/09/01 02:33:42;;;;;;;7.88;6.00;;;410.40;2355.20;;;;;;5072242;28;20025;-77
2023/09/01 02:36:31;;;;;;;7.03;6.00;;;410.40;2355.20;;;;;;5072208;28;20059;-78
2023/09/01 02:38:57;;;;;;;8.93;6.18;;;410.40;2355.20;;;;;;5072580;28;20028;-77
2023/09/01 02:41:24;;;;;;;9.48;6.63;;;410.40;2355.20;;;;;;5072520;28;20067;-78
2023/09/01 02:43:50;;;;;;;8.40;6.20;;;410.40;2355.20;;;;;;5054469;28;20040;-77
2023/09/01 02:46:16;;;;;;;7.68;6.25;;;410.30;2355.20;;;;;;5054419;28;20390;-78
2023/09/01 02:48:42;;;;;;;10.88;6.40;;;410.30;2355.20;;;;;;5072009;28;20039;-78
2023/09/01 02:51:07;;;;;;;10.13;6.40;;;410.10;2355.20;;;;;;5072418;28;20021;-77
2023/09/01 02:53:34;;;;;;;8.63;5.60;;;410.20;2355.20;;;;;;5054206;28;20040;-78
2023/09/01 02:56:00;;;;;;;7.40;4.22;;;410.20;2355.20;;;;;;5072339;28;20031;-77
2023/09/01 02:58:26;;;;;;;5.82;3.75;;;410.10;2355.20;;;;;;5071722;28;20028;-78
2023/09/01 03:00:52;;;;;;;5.60;3.53;;;410.10;2355.20;;;;;;5072320;28;20083;-78
2023/09/01 03:03:19;;;;;;;5.15;3.40;;;410.10;2355.20;;;;;;5072291;28;20028;-77
2023/09/01 03:05:50;;;;;;;5.35;3.50;;;410.10;2355.20;;;;;;5072847;28;20103;-77
2023/09/01 03:08:17;;;;;;;5.63;3.40;;;410.10;2355.20;;;;;;5076358;28;20020;-78
2023/09/01 03:10:43;;;;;;;5.30;3.38;;;410.10;2355.20;;;;;;5076227;28;20036;-77
2023/09/01 03:13:09;;;;;;;5.72;3.60;;;410.00;2355.20;;;;;;5075985;28;20020;-78
2023/09/01 03:15:35;;;;;;;6.28;3.60;;;409.90;2355.20;;;;;;5076081;28;20032;-77
2023/09/01 03:18:02;;;;;;;6.18;3.72;;;409.90;2355.20;;;;;;5076149;28;20424;-78
2023/09/01 03:20:28;;;;;;;4.95;3.20;;;409.90;2355.20;;;;;;5057925;28;20430;-77
2023/09/01 03:22:53;;;;;;;5.43;3.40;;;409.70;2355.20;;;;;;5057831;28;20063;-78
2023/09/01 03:25:19;;;;;;;5.93;3.38;;;409.80;2355.20;;;;;;5058036;28;20071;-78
2023/09/01 03:27:45;;;;;;;6.20;3.25;;;409.80;2355.20;;;;;;5075895;28;20032;-78
2023/09/01 03:30:11;;;;;;;5.53;3.00;;;409.70;2355.20;;;;;;5075915;28;20056;-79
2023/09/01 03:32:38;;;;;;;5.70;3.20;;;409.60;2355.20;;;;;;5075843;28;20036;-78
2023/09/01 03:35:07;;;;;;;5.18;3.08;;;384.90;2329.60;;;;;;5057517;28;20128;-78
2023/09/01 03:37:33;;;;;;;5.38;3.38;;;384.60;2329.60;;;;;;5075766;28;20494;-78
2023/09/01 03:39:59;;;;;;;5.55;3.28;;;384.60;2329.60;;;;;;5075916;28;20420;-78
2023/09/01 03:42:26;;;;;;;4.72;3.45;;;;;;;;;;5057727;28;20048;-79
2023/09/01 03:44:55;;;;;;;6.18;3.55;;;;;;;;;;5075470;28;20055;-78
2023/09/01 03:47:21;;;;;;;6.05;3.20;;;;;;;;;;5075705;28;20017;-78
2023/09/01 03:49:47;;;;;;;4.93;3.50;;;;;;;;;;5075473;28;20024;-78
2023/09/01 03:52:13;;;;;;;5.82;3.67;;;;;;;;;;5057507;28;20475;-78
2023/09/01 03:54:39;;;;;;;5.63;3.67;;;384.70;2329.60;;;;;;5075538;28;20064;-78
2023/09/01 03:57:05;;;;;;;5.10;3.42;;;384.40;2329.60;;;;;;5075394;28;20386;-77
2023/09/01 03:59:30;;;;;;;5.30;3.05;;;384.30;2329.60;;;;;;5075500;28;20111;-81
2023/09/01 04:01:56;;;;;;;5.65;3.50;;;384.30;2329.60;;;;;;5056830;28;20093;-79
2023/09/01 04:05:01;;;;;;;6.78;3.63;;;384.30;2329.60;;;;;;5074905;28;20466;-79
2023/09/01 04:07:27;;;;;;;5.97;3.95;;;384.30;2329.60;;;;;;5075343;28;20020;-78
2023/09/01 04:09:53;;;;;;;5.85;3.80;;;384.40;2329.60;;;;;;5075051;28;20651;-78
2023/09/01 04:12:19;;;;;;;6.20;3.80;;;384.40;2329.60;;;;;;5057113;28;20024;-78
2023/09/01 04:14:44;;;;;;;7.40;4.00;;;384.40;2329.60;;;;;;5057109;28;20432;-79
2023/09/01 04:17:10;;;;;;;7.00;3.92;;;384.50;2329.60;;;;;;5074352;28;20024;-78
2023/09/01 04:19:36;;;;;;;5.47;3.70;;;384.50;2329.60;;;;;;5073910;28;20081;-78
2023/09/01 04:22:01;;;;;;;5.75;3.80;;;384.50;2329.60;;;;;;5056978;28;20032;-78
2023/09/01 04:24:27;;;;;;;6.78;4.00;;;384.60;2329.60;;;;;;5074360;28;20028;-79
2023/09/01 04:26:53;;;;;;;6.70;3.90;;;384.60;2329.60;;;;;;5074679;28;20043;-78
2023/09/01 04:29:18;;;;;;;5.57;3.60;;;384.70;2329.60;;;;;;5073393;28;20082;-79
2023/09/01 04:31:44;;;;;;;6.03;3.90;;;384.70;2329.60;;;;;;5074584;28;20017;-78
2023/09/01 04:34:10;;;;;;;5.95;3.80;;;384.80;2329.60;;;;;;5056419;28;20102;-78
2023/09/01 04:36:36;;;;;;;7.45;3.85;;;384.80;2329.60;;;;;;5074395;28;20142;-79
2023/09/01 04:39:04;;;;;;;7.15;4.20;;;384.90;2329.60;;;;;;5056472;28;20071;-78
2023/09/01 04:41:31;;;;;;;5.68;3.83;;;384.80;2329.60;;;;;;5074562;28;20025;-79
2023/09/01 04:43:58;;;;;;;5.57;3.85;;;384.90;2329.60;;;;;;5074374;28;20514;-78
2023/09/01 04:46:24;;;;;;;6.43;4.18;;;384.90;2329.60;;;;;;5056477;28;20039;-79
2023/09/01 04:48:49;;;;;;;6.90;4.15;;;384.80;2329.60;;;;;;5056490;28;20024;-79
2023/09/01 04:51:15;;;;;;;6.13;3.85;;;384.80;2329.60;;;;;;5056615;28;20021;-78
2023/09/01 04:53:41;;;;;;;6.25;4.13;;;384.80;2329.60;;;;;;5056437;28;20411;-78
2023/09/01 04:56:07;;;;;;;7.93;4.47;;;384.70;2329.60;;;;;;5074537;28;20056;-78
2023/09/01 04:58:33;;;;;;;7.07;4.18;;;384.70;2329.60;;;;;;5073604;28;20511;-79
2023/09/01 05:00:58;;;;;;;8.13;3.97;;;384.30;2329.60;;;;;;5056270;28;20028;-78
2023/09/01 05:03:25;;;;;;;7.18;4.30;;;384.90;2329.60;;;;;;5073714;28;20024;-78
2023/09/01 05:05:52;;;;;;;6.65;4.30;;;409.60;2355.20;;;;;;5055948;28;20024;-78
2023/09/01 05:08:17;;;;;;;6.82;4.20;;;409.90;2355.20;;;;;;5074103;28;20366;-78
2023/09/01 05:10:43;;;;;;;6.55;4.30;;;409.80;2355.20;;;;;;5073054;28;20086;-77
2023/09/01 05:13:09;;;;;;;6.43;4.35;;;409.90;2355.20;;;;;;5073637;28;20020;-77
2023/09/01 05:15:35;;;;;;;7.55;4.65;;;410.10;2355.20;;;;;;5073359;28;20083;-78
2023/09/01 05:18:01;;;;;;;7.40;4.63;;;410.10;2355.20;;;;;;5073529;28;20025;-78
2023/09/01 05:20:26;;;;;;;7.63;4.80;;;410.20;2355.20;;;;;;5073847;28;20089;-78
2023/09/01 05:22:53;;;;;;;6.90;4.70;;;410.30;2355.20;;;;;;5072942;28;20118;-77
2023/09/01 05:25:18;;;;;;;7.10;4.60;;;410.40;2355.20;;;;;;5055749;28;20075;-78
2023/09/01 05:27:44;;;;;;;7.90;4.20;;;410.50;2355.20;;;;;;5055349;28;20474;-77
2023/09/01 05:30:12;;;;;;;6.35;4.13;;;435.20;2355.20;;;;;;5072870;28;20367;-76
2023/09/01 05:32:38;;;;;;;6.78;4.20;;;435.20;2355.20;;;;;;5073263;28;20024;-77
2023/09/01 05:35:05;;;;;;;7.82;4.95;;;435.30;2355.20;;;;;;5054760;28;20052;-76
2023/09/01 05:37:31;;;;;;;7.32;4.45;;;435.40;2355.20;;;;;;5055251;28;20546;-77
2023/09/01 05:39:57;;;;;;;13.13;6.45;;;435.50;2355.20;;;;;;5073629;28;20028;-77
2023/09/01 05:42:23;;;;;;;10.00;5.78;;;435.70;2355.20;;;;;;5075196;28;20024;-78
2023/09/01 05:44:49;;;;;;;7.50;4.68;;;435.70;2355.20;;;;;;5056431;28;20033;-78
2023/09/01 05:47:14;;;;;;;5.68;3.65;;;435.80;2355.20;;;;;;5074117;28;20546;-77
2023/09/01 05:49:40;;;;;;;5.35;3.53;;;435.80;2355.20;;;;;;5074244;28;20024;-77
2023/09/01 05:52:06;;;;;;;7.00;3.90;;;;;;;;;;5074447;28;20598;-78
2023/09/01 05:54:32;;;;;;;5.75;4.15;;;461.10;2150.40;;;;;;5074417;28;20043;-78
2023/09/01 05:56:58;;;;;;;6.10;3.70;;;;;;;;;;5067847;28;20122;-78
2023/09/01 05:59:24;;;;;;;5.60;3.40;;;461.30;2099.20;;;;;;5055975;28;20032;-78
2023/09/01 06:01:50;;;;;;;6.53;3.80;;;461.00;1996.80;;;;;;5072259;28;20032;-77
2023/09/01 06:04:15;;;;;;;5.32;3.17;;;461.00;2380.80;;;;;;5073772;28;20021;-77
2023/09/01 06:06:41;;;;;;;7.05;3.60;;;461.10;2380.80;;;;;;5055480;28;20086;-78
2023/09/01 06:09:10;;;;;;;4.88;3.20;;;461.20;2380.80;;;;;;5073792;28;20138;-77
2023/09/01 06:11:39;;;;;;;5.28;3.22;;;461.30;2380.80;;;;;;5056115;28;20028;-79
2023/09/01 06:14:05;;;;;;;6.13;3.28;;;461.40;2380.80;;;;;;5073929;28;20119;-78
2023/09/01 06:16:31;;;;;;;4.90;2.90;;;461.60;2380.80;;;;;;5074480;28;20427;-78
2023/09/01 06:19:03;;;;;;;5.18;2.90;;;461.70;2380.80;;;;;;5074413;28;20040;-78
2023/09/01 06:21:31;;;;;;;5.38;3.10;;;486.50;2380.80;;;;;;5055926;28;20123;-78
2023/09/01 06:23:57;;;;;;;5.15;3.50;;;487.00;2380.80;;;;;;5055834;28;20086;-78
2023/09/01 06:26:23;;;;;;;5.10;3.28;;;486.80;2380.80;;;;;;5056024;28;20036;-78
2023/09/01 06:28:49;;;;;;;4.45;3.30;;;486.80;2380.80;;;;;;5055946;28;20064;-78
2023/09/01 06:31:16;;;;;;;4.30;3.15;;;;;;;;;;5074702;28;20028;-78
2023/09/01 06:33:43;;;;;;;3.60;2.58;;;487.10;2380.80;;;;;;5055738;28;20537;-79
2023/09/01 06:36:13;;;;;;;3.33;2.28;;;;;;;;;;5055558;28;20048;-79
2023/09/01 06:38:40;;;;;;;3.03;2.25;;;;;;;;;;5074328;28;20346;-76
2023/09/01 06:41:07;;;;;;;3.38;2.20;;;;;;;;;;5074250;28;20822;-79
2023/09/01 06:43:33;;;;;;;3.35;2.13;;;;;;;;;;5073549;28;20028;-79
2023/09/01 06:45:59;;;;;;;3.33;2.30;;;;;;;;;;5073477;28;20040;-78
2023/09/01 06:48:26;;;;;;;3.25;2.40;;;922.50;1331.20;;;;;;5055599;28;20470;-78
2023/09/01 06:50:51;;;;;;;3.50;2.15;;;896.80;1331.20;;;;;;5074218;28;20044;-80
2023/09/01 06:53:18;;;;;;;3.00;1.70;;;;;;;;;;5073845;28;20435;-79
2023/09/01 06:55:47;;;;;;;3.13;2.20;;;;;;;;;;5074324;28;20162;-80
2023/09/01 06:58:13;;;;;;;2.40;2.00;;;;;;;;;;5074433;28;20025;-80
2023/09/01 07:00:39;;;;;;;2.60;1.90;;;;;;;;;;5073782;28;20024;-79
2023/09/01 07:03:05;;;;;;;2.85;1.90;;;921.60;1280.00;;;;;;5056326;28;20027;-80
2023/09/01 07:06:10;;;;;;;2.60;1.80;;;793.70;1536.00;;;;;;5073641;28;20033;-79
2023/09/01 07:08:35;;;;;;;2.70;1.67;;;768.00;1612.80;;;;;;4992302;28;20034;-80
2023/09/01 07:11:02;;;;;;;2.55;1.75;;;;;;;;;;4992484;28;20022;-80
2023/09/01 07:13:32;;;;;;;2.60;1.60;;;691.90;1792.00;;;;;;4992441;28;20038;-80
2023/09/01 07:15:58;;;;;;;2.92;2.10;;;691.30;1920.00;;;;;;4992439;28;20042;-80
2023/09/01 07:18:25;;;;;;;2.20;1.55;;;666.10;2099.20;;;;;;4992446;28;20022;-80
2023/09/01 07:21:07;;;;;;;2.25;1.70;;;640.40;2176.00;;;;;;4992607;28;20046;-81
2023/09/01 07:23:34;;;;;;;3.35;1.70;;;640.00;2304.00;;;;;;4992518;28;20031;-80
2023/09/01 07:26:01;;;;;;;2.50;1.85;;;;;;;;;;4992866;28;20026;-81
2023/09/01 07:28:28;;;;;;;2.45;1.67;;;615.10;2432.00;;;;;;4992271;28;20073;-81
2023/09/01 07:30:54;;;;;;;3.28;1.67;;;614.70;2432.00;;;;;;4992041;28;20054;-80
2023/09/01 07:33:22;;;;;;;2.70;1.55;;;614.50;2432.00;;;;;;4991097;28;20512;-79
2023/09/01 07:35:52;;;;;;;2.67;1.70;;;615.00;2432.00;;;;;;4992041;28;20532;-80
2023/09/01 07:38:21;;;;;;;2.45;1.65;;;614.40;2432.00;;;;;;4999213;28;20037;-81
2023/09/01 07:40:47;;;;;;;2.00;1.48;;;;;;;;;;5072337;28;20079;-81
2023/09/01 07:43:15;;;;;;;2.30;1.60;;;615.00;2432.00;;;;;;5073763;28;20074;-80
2023/09/01 07:45:43;;;;;;;2.47;1.75;;;;;;;;;;5073718;28;20025;-80
2023/09/01 07:48:09;;;;;;;1.65;1.30;;;;;;;;;;5055416;28;20123;-80
2023/09/01 07:50:36;;;;;;;2.08;1.50;;;;;;;;;;5073634;28;20040;-81
2023/09/01 07:53:03;;;;;;;2.85;1.50;;;;;;;;;;5076589;28;20059;-81
2023/09/01 07:55:29;;;;;;;1.92;1.50;;;640.80;2432.00;;;;;;5077232;28;20050;-80
2023/09/01 07:57:59;;;;;;;2.80;1.80;;;;;;;;;;5059231;28;20118;-80
2023/09/01 08:00:25;;;;;;;2.17;1.48;;;;;;;;;;5077599;28;20027;-81
2023/09/01 08:02:50;;;;;;;2.30;1.40;;;640.50;2406.40;;;;;;5076739;28;20466;-81
2023/09/01 08:05:17;;;;;;;2.97;1.48;;;640.50;2380.80;;;;;;5058885;28;20028;-82
2023/09/01 08:07:43;;;;;;;2.30;1.58;;;;;;;;;;5077293;28;20020;-81
2023/09/01 08:10:10;;;;;;;2.22;1.55;;;;;;;;;;5058379;28;20502;-81
2023/09/01 08:12:36;;;;;;;2.55;1.60;;;;;;;;;;5059405;28;20074;-82
2023/09/01 08:15:02;;;;;;;3.38;1.50;;;;;;;;;;5077252;28;20039;-81
2023/09/01 08:17:28;;;;;;;2.08;1.30;;;666.00;2048.00;;;;;;5077341;28;20021;-80
2023/09/01 08:19:54;;;;;;;2.17;1.27;;;;;;;;;;5075368;28;20017;-80
2023/09/01 08:22:20;;;;;;;2.08;1.45;;;;;;;;;;5077293;28;20024;-80
2023/09/01 08:24:46;;;;;;;2.38;1.50;;;;;;;;;;5077189;28;20046;-79
2023/09/01 08:27:12;;;;;;;2.08;1.40;;;;;;;;;;5076688;28;20020;-80
2023/09/01 08:29:38;;;;;;;1.90;1.30;;;;;;;;;;5076979;28;20467;-80
2023/09/01 08:32:06;;;;;;;1.95;1.30;;;;;;;;;;5059228;28;20428;-79
2023/09/01 08:34:33;;;;;;;3.05;1.85;;;;;;;;;;5054194;28;20091;-80
2023/09/01 08:36:59;;;;;;;2.55;1.50;;;;;;;;;;5076822;28;20500;-81
2023/09/01 08:39:25;;;;;;;1.95;1.23;;;665.70;1996.80;;;;;;5058885;28;20035;-81
2023/09/01 08:41:52;;;;;;;1.98;1.30;;;;;;;;;;5077003;28;20028;-82
2023/09/01 08:44:23;;;;;;;1.83;1.23;;;;;;;;;;5076855;28;20612;-81
2023/09/01 08:46:50;;;;;;;4.00;1.15;;;;;;;;;;5076874;28;20027;-80
2023/09/01 08:49:16;;;;;;;1.60;1.00;;;;;;;;;;5076367;28;20029;-81
2023/09/01 08:51:43;;;;;;;1.60;1.15;;;;;;;;;;5076695;28;20028;-83
2023/09/01 08:54:09;;;;;;;2.35;1.30;;;;;;;;;;5076522;28;20021;-81
2023/09/01 08:56:35;;;;;;;1.65;1.10;;;;;;;;;;5076304;28;20036;-81
2023/09/01 08:59:02;;;;;;;1.80;1.17;;;;;;;;;;5076183;28;20020;-81
2023/09/01 09:01:30;;;;;;;1.60;1.10;;;;;;;;;;5076689;28;20056;-83
2023/09/01 09:03:58;;;;;;;1.70;0.90;;;;;;;;;;5075298;28;20025;-81
2023/09/01 09:06:31;;;;;;;1.63;1.00;;;;;;;;;;5058206;28;20413;-81
2023/09/01 09:09:08;;;;;;;1.65;1.00;;;;;;;;;;5076370;28;20025;-81
2023/09/01 09:11:33;;;;;;;1.70;0.98;;;692.00;1638.40;;;;;;5075996;28;20021;-82
2023/09/01 09:13:59;;;;;;;2.58;1.50;;;692.10;1612.80;;;;;;5058155;28;20081;-81
2023/09/01 09:16:25;;;;;;;1.35;1.05;;;691.90;1740.80;;;;;;5075557;28;20037;-81
2023/09/01 09:18:51;;;;;;;2.10;1.40;;;692.00;1766.40;;;;;;5075804;28;20028;-81
2023/09/01 09:21:32;;;;;;;1.70;1.10;;;716.90;1792.00;;;;;;5058475;28;20115;-81
2023/09/01 09:23:59;;;;;;;1.63;1.13;;;692.10;1689.60;;;;;;5057773;28;20024;-81
2023/09/01 09:26:29;;;;;;;1.15;1.00;;;691.60;1715.20;;;;;;5076034;28;20020;-80
2023/09/01 09:29:06;;;;;;;1.40;1.00;;;691.80;1715.20;;;;;;5058372;28;20104;-82
2023/09/01 09:31:51;;;;;;;;;;;;;;;;;;;;;
2023/09/01 09:34:20;;;;;;;2.10;1.30;;;716.90;1766.40;;;;;;5075303;28;20044;-81
2023/09/01 09:36:49;;;;;;;1.65;1.27;;;691.50;1792.00;;;;;;5057590;28;20044;-81
2023/09/01 09:39:24;;;;;;;1.77;1.27;;;691.80;1792.00;;;;;;5075660;28;20048;-82
2023/09/01 09:41:50;;;;;;;1.73;1.20;;;;;;;;;;5073744;28;20032;-82
2023/09/01 09:44:31;;;;;;;1.90;1.33;;;717.30;1715.20;;;;;;5075797;28;20115;-82
2023/09/01 09:46:58;;;;;;;2.13;1.40;;;717.40;1715.20;;;;;;5057882;28;20044;-82
2023/09/01 09:49:25;;;;;;;2.33;1.52;;;717.00;1740.80;;;;;;5057895;28;20128;-81
2023/09/01 09:51:52;;;;;;;3.25;1.50;;;716.90;1792.00;;;;;;5057396;28;20064;-82
2023/09/01 09:54:23;;;;;;;2.05;1.30;;;717.00;1740.80;;;;;;5075148;28;20690;-81
2023/09/01 09:56:51;;;;;;;1.77;1.20;;;717.10;1715.20;;;;;;5057530;28;20024;-81
2023/09/01 09:59:42;;;;;;;1.75;1.25;;;717.00;1792.00;;;;;;5058083;28;20025;-82
2023/09/01 10:02:25;;;;;;;1.67;1.10;;;717.60;1689.60;;;;;;5075488;28;20370;-82
2023/09/01 10:05:24;;;;;;;2.00;1.35;;;717.30;1715.20;;;;;;5075374;28;20493;-82
2023/09/01 10:07:51;;;;;;;1.83;1.40;;;717.10;1689.60;;;;;;5075178;28;20521;-83
2023/09/01 10:10:18;;;;;;;2.10;1.40;;;717.10;1689.60;;;;;;5075422;28;20055;-81
2023/09/01 10:12:44;;;;;;;2.17;1.48;;;716.90;1715.20;;;;;;5075260;28;20096;-82
2023/09/01 10:15:13;;;;;;;2.10;1.40;;;717.00;1792.00;;;;;;5056236;28;20140;-83
2023/09/01 10:17:42;;;;;;;2.30;1.35;;;717.70;1689.60;;;;;;5057580;28;20040;-82
2023/09/01 10:20:09;;;;;;;2.00;1.25;;;743.00;1664.00;;;;;;5075375;28;20478;-81
2023/09/01 10:22:40;;;;;;;1.85;1.20;;;768.10;1715.20;;;;;;5074240;28;20042;-81
2023/09/01 10:25:09;;;;;;;1.58;1.20;;;768.80;1587.20;;;;;;5075544;28;20477;-82
2023/09/01 10:27:37;;;;;;;1.85;1.42;;;;;;;;;;5057268;28;20031;-81
2023/09/01 10:30:30;;;;;;;1.48;1.10;;;717.70;1612.80;;;;;;5057136;28;20498;-82
2023/09/01 10:33:04;;;;;;;1.48;1.10;;;742.60;1612.80;;;;;;5056398;28;20055;-83
2023/09/01 10:35:48;;;;;;;2.10;1.40;;;717.70;1587.20;;;;;;5056054;28;20045;-83
2023/09/01 10:38:36;;;;;;;2.05;1.40;;;;;;;;;;5057467;28;20530;-82
2023/09/01 10:41:02;;;;;;;2.13;1.50;;;742.50;1664.00;;;;;;5075189;28;20069;-82
2023/09/01 10:43:34;;;;;;;2.58;1.45;;;742.40;1638.40;;;;;;5057516;28;20029;-84
2023/09/01 10:46:15;;;;;;;2.28;1.50;;;742.50;1638.40;;;;;;5074998;28;20024;-84
2023/09/01 10:49:22;;;;;;;2.05;1.52;;;742.40;1638.40;;;;;;5075241;28;20048;-84
2023/09/01 10:52:08;;;;;;;1.90;1.40;;;742.50;1587.20;;;;;;5075107;28;20039;-84
2023/09/01 10:54:38;;;;;;;1.80;1.33;;;742.90;1561.60;;;;;;5057379;28;20033;-84
2023/09/01 10:57:04;;;;;;;2.03;1.40;;;742.90;1587.20;;;;;;5075564;28;20056;-84
2023/09/01 10:59:36;;;;;;;2.50;1.55;;;743.00;1561.60;;;;;;5074418;28;20059;-83
2023/09/01 11:02:18;;;;;;;1.85;1.33;;;742.50;1612.80;;;;;;5074942;28;20466;-84
2023/09/01 11:04:44;;;;;;;1.98;1.30;;;742.50;1612.80;;;;;;5074539;28;20017;-84
2023/09/01 11:07:11;;;;;;;2.05;1.40;;;717.60;1638.40;;;;;;5074994;28;20028;-83
2023/09/01 11:09:42;;;;;;;2.38;1.40;;;742.50;1638.40;;;;;;5075331;28;20375;-83
2023/09/01 11:12:12;;;;;;;2.25;1.55;;;742.70;1638.40;;;;;;5074877;28;20040;-83
2023/09/01 11:14:59;;;;;;;2.03;1.58;;;742.90;1587.20;;;;;;5056085;28;20037;-82
2023/09/01 11:17:45;;;;;;;2.20;1.50;;;742.80;1587.20;;;;;;5073497;28;20048;-83
2023/09/01 11:20:16;;;;;;;2.40;1.58;;;743.00;1536.00;;;;;;5074307;28;20036;-82
2023/09/01 11:22:42;;;;;;;1.95;1.40;;;742.90;1536.00;;;;;;5056380;28;20439;-82
2023/09/01 11:25:13;;;;;;;2.35;1.50;;;742.50;1536.00;;;;;;5074042;28;20027;-82
2023/09/01 11:27:46;;;;;;;2.35;1.50;;;717.70;1612.80;;;;;;5077009;28;20021;-82
2023/09/01 11:30:12;;;;;;;1.85;1.40;;;742.70;1561.60;;;;;;5078280;28;20833;-83
2023/09/01 11:32:38;;;;;;;1.90;1.40;;;768.00;1587.20;;;;;;5077551;28;20033;-81
2023/09/01 11:35:05;;;;;;;1.80;1.40;;;743.30;1510.40;;;;;;5059282;28;20048;-83
2023/09/01 11:37:41;;;;;;;2.13;1.55;;;768.10;1536.00;;;;;;5078192;28;20044;-82
2023/09/01 11:40:12;;;;;;;1.75;1.33;;;768.00;1484.80;;;;;;5077389;28;20113;-81
2023/09/01 11:42:39;;;;;;;1.77;1.20;;;768.30;1536.00;;;;;;5059788;28;20355;-83
2023/09/01 11:45:09;;;;;;;1.83;1.60;;;743.20;1408.00;;;;;;5060132;28;20024;-84
2023/09/01 11:47:36;;;;;;;1.67;1.20;;;743.20;1433.60;;;;;;5078554;28;20048;-85
2023/09/01 11:50:02;;;;;;;1.95;1.42;;;768.30;1408.00;;;;;;5078498;28;20036;-83
2023/09/01 11:52:30;;;;;;;1.80;1.33;;;743.20;1408.00;;;;;;5077926;28;20029;-82
2023/09/01 11:54:57;;;;;;;2.08;1.40;;;768.50;1433.60;;;;;;5060300;28;20060;-82
2023/09/01 11:57:23;;;;;;;2.33;1.40;;;;;;;;;;5080252;28;20035;-83
2023/09/01 11:59:49;;;;;;;2.10;1.38;;;768.30;1433.60;;;;;;5061844;28;20032;-84
2023/09/01 12:02:22;;;;;;;2.13;1.42;;;768.00;1433.60;;;;;;5061209;28;20066;-86
2023/09/01 12:04:51;;;;;;;2.58;1.30;;;768.00;1433.60;;;;;;5062020;28;20031;-85
2023/09/01 12:07:28;;;;;;;2.35;1.48;;;743.00;1433.60;;;;;;5079860;28;20028;-85
2023/09/01 12:09:55;;;;;;;1.88;1.30;;;743.30;1459.20;;;;;;5062409;28;20025;-85
2023/09/01 12:12:22;;;;;;;1.88;1.15;;;768.30;1408.00;;;;;;5063984;28;20119;-84
2023/09/01 12:14:49;;;;;;;1.90;1.23;;;768.80;1382.40;;;;;;5081816;28;20036;-83
2023/09/01 12:17:19;;;;;;;1.50;1.10;;;793.60;1331.20;;;;;;5062692;28;20020;-85
2023/09/01 12:19:53;;;;;;;1.65;1.20;;;743.20;1331.20;;;;;;5081386;28;20085;-85
2023/09/01 12:22:20;;;;;;;1.85;1.23;;;;;;;;;;5080270;28;20044;-85
2023/09/01 12:24:53;;;;;;;1.70;1.40;;;743.00;1382.40;;;;;;5083234;28;20398;-84
2023/09/01 12:27:21;;;;;;;2.05;1.27;;;742.80;1382.40;;;;;;5065861;28;20028;-86
2023/09/01 12:29:47;;;;;;;2.22;1.20;;;742.90;1356.80;;;;;;5065334;28;20043;-85
2023/09/01 12:32:14;;;;;;;1.58;1.20;;;768.00;1382.40;;;;;;5066828;28;20459;-85
2023/09/01 12:34:41;;;;;;;1.40;1.10;;;743.00;1356.80;;;;;;5066078;28;20482;-85
2023/09/01 12:37:08;;;;;;;1.60;1.10;;;743.10;1382.40;;;;;;5070104;28;20036;-85
2023/09/01 12:39:36;;;;;;;1.80;1.10;;;743.20;1356.80;;;;;;5086661;28;20024;-85
2023/09/01 12:42:02;;;;;;;1.67;1.10;;;768.30;1331.20;;;;;;5087991;28;20028;-83
2023/09/01 12:44:30;;;;;;;2.38;1.38;;;768.40;1305.60;;;;;;5067604;28;20057;-86
2023/09/01 12:46:56;;;;;;;1.60;1.02;;;768.10;1305.60;;;;;;5084982;28;20025;-85